createdAt,value
2017-10-07T00:00:01.110Z,7.73
2017-10-07T00:02:28.646Z,8.50
2017-10-07T00:04:56.894Z,7.67
2017-10-07T00:07:25.908Z,9.47
2017-10-07T00:09:54.153Z,8.10
2017-10-07T00:12:23.161Z,7.93
2017-10-07T00:14:51.407Z,7.47
2017-10-07T00:17:19.649Z,6.67
2017-10-07T00:19:47.902Z,7.20
2017-10-07T00:22:16.145Z,7.60
2017-10-07T00:24:45.157Z,7.90
2017-10-07T00:27:13.401Z,7.90
2017-10-07T00:29:41.648Z,7.33
2017-10-07T00:32:09.885Z,7.30
2017-10-07T00:34:38.125Z,7.20
2017-10-07T00:37:06.369Z,7.73
2017-10-07T00:39:34.621Z,7.43
2017-10-07T00:42:02.863Z,7.50
2017-10-07T00:44:31.878Z,7.37
2017-10-07T00:47:00.117Z,6.87
2017-10-07T00:49:28.360Z,7.70
2017-10-07T00:51:56.604Z,7.00
2017-10-07T00:54:24.854Z,8.10
2017-10-07T00:56:54.598Z,6.97
2017-10-07T00:59:22.857Z,6.57
2017-10-07T01:01:51.856Z,7.00
2017-10-07T01:04:20.109Z,7.90
2017-10-07T01:06:49.117Z,8.17
2017-10-07T01:09:18.133Z,8.13
2017-10-07T01:11:46.374Z,6.43
2017-10-07T01:14:14.616Z,7.60
2017-10-07T01:16:42.857Z,7.10
2017-10-07T01:19:11.104Z,7.80
2017-10-07T01:21:40.110Z,7.00
2017-10-07T01:24:08.359Z,6.40
2017-10-07T01:26:36.593Z,7.60
2017-10-07T01:29:04.853Z,6.97
2017-10-07T01:31:33.089Z,7.53
2017-10-07T01:34:02.105Z,6.50
2017-10-07T01:36:30.341Z,6.30
2017-10-07T01:38:58.594Z,8.53
2017-10-07T01:41:26.834Z,7.33
2017-10-07T01:43:55.074Z,7.50
2017-10-07T01:46:23.313Z,7.00
2017-10-07T01:48:51.562Z,7.27
2017-10-07T01:51:19.809Z,7.23
2017-10-07T01:53:48.820Z,7.20
2017-10-07T01:56:17.817Z,7.80
2017-10-07T01:58:46.071Z,7.17
2017-10-07T02:01:14.312Z,7.20
2017-10-07T02:03:43.085Z,7.07
2017-10-07T02:06:11.334Z,6.23
2017-10-07T02:08:39.570Z,6.70
2017-10-07T02:11:07.808Z,6.20
2017-10-07T02:13:36.036Z,5.00
2017-10-07T02:16:05.045Z,7.07
2017-10-07T02:18:33.286Z,6.87
2017-10-07T02:21:01.598Z,7.07
2017-10-07T02:23:29.841Z,5.53
2017-10-07T02:25:58.085Z,5.67
2017-10-07T02:28:26.325Z,5.80
2017-10-07T02:30:54.582Z,6.30
2017-10-07T02:33:23.594Z,5.70
2017-10-07T02:35:51.837Z,4.77
2017-10-07T02:38:20.083Z,5.53
2017-10-07T02:40:48.321Z,4.50
2017-10-07T02:43:16.559Z,6.57
2017-10-07T02:45:44.801Z,5.57
2017-10-07T02:48:13.042Z,5.70
2017-10-07T02:50:41.288Z,5.27
2017-10-07T02:53:09.525Z,6.37
2017-10-07T02:55:37.770Z,5.33
2017-10-07T02:58:06.001Z,5.80
2017-10-07T03:00:34.240Z,4.10
2017-10-07T03:03:02.481Z,4.80
2017-10-07T03:05:31.493Z,4.47
2017-10-07T03:07:59.732Z,4.43
2017-10-07T03:10:27.973Z,4.03
2017-10-07T03:12:56.212Z,4.07
2017-10-07T03:15:24.459Z,4.43
2017-10-07T03:17:52.696Z,5.13
2017-10-07T03:20:20.942Z,4.60
2017-10-07T03:22:49.182Z,4.30
2017-10-07T03:25:17.421Z,3.50
2017-10-07T03:27:45.657Z,4.03
2017-10-07T03:30:13.901Z,4.37
2017-10-07T03:32:42.138Z,4.73
2017-10-07T03:35:10.376Z,3.97
2017-10-07T03:37:39.376Z,4.23
2017-10-07T03:40:07.629Z,3.73
2017-10-07T03:42:35.865Z,4.37
2017-10-07T03:45:04.112Z,4.57
2017-10-07T03:47:32.346Z,4.67
2017-10-07T03:50:00.589Z,3.83
2017-10-07T03:52:28.830Z,3.87
2017-10-07T03:54:57.088Z,4.83
2017-10-07T03:57:26.080Z,4.70
2017-10-07T03:59:55.094Z,4.50
2017-10-07T04:02:23.334Z,4.53
2017-10-07T04:04:51.581Z,4.07
2017-10-07T04:07:19.818Z,3.53
2017-10-07T04:09:48.062Z,3.90
2017-10-07T04:12:16.308Z,3.90
2017-10-07T04:14:44.546Z,4.13
2017-10-07T04:17:12.790Z,4.07
2017-10-07T04:19:41.801Z,4.23
2017-10-07T04:22:10.798Z,3.50
2017-10-07T04:24:39.041Z,5.30
2017-10-07T04:27:07.279Z,3.13
2017-10-07T04:29:35.528Z,4.23
2017-10-07T04:32:03.771Z,4.53
2017-10-07T04:34:32.018Z,4.00
2017-10-07T04:37:00.248Z,4.90
2017-10-07T04:39:29.252Z,4.60
2017-10-07T04:41:57.497Z,4.87
2017-10-07T04:44:25.728Z,6.80
2017-10-07T04:46:53.976Z,5.40
2017-10-07T04:49:22.213Z,4.83
2017-10-07T04:51:50.461Z,5.90
2017-10-07T04:54:18.701Z,6.67
2017-10-07T04:56:46.950Z,5.80
2017-10-07T04:59:15.957Z,7.03
2017-10-07T05:01:44.202Z,4.57
2017-10-07T05:04:12.451Z,7.40
2017-10-07T05:06:40.685Z,6.10
2017-10-07T05:09:08.925Z,6.83
2017-10-07T05:11:37.177Z,6.47
2017-10-07T05:14:05.419Z,7.37
2017-10-07T05:16:33.665Z,8.90
2017-10-07T05:19:01.905Z,8.80
2017-10-07T05:21:30.151Z,7.60
2017-10-07T05:23:58.391Z,7.83
2017-10-07T05:26:27.405Z,8.60
2017-10-07T05:28:55.642Z,8.30
2017-10-07T05:31:23.898Z,6.50
2017-10-07T05:33:52.141Z,5.10
2017-10-07T05:36:20.382Z,6.90
2017-10-07T05:38:49.392Z,6.97
2017-10-07T05:41:18.405Z,8.07
2017-10-07T05:43:46.646Z,8.00
2017-10-07T05:46:15.666Z,8.00
2017-10-07T05:48:43.907Z,7.63
2017-10-07T05:51:12.176Z,6.70
2017-10-07T05:53:40.414Z,7.30
2017-10-07T05:56:08.664Z,8.77
2017-10-07T05:58:36.898Z,7.77
2017-10-07T06:01:05.150Z,7.43
2017-10-07T06:03:33.389Z,7.23
2017-10-07T06:06:01.639Z,8.27
2017-10-07T06:08:30.659Z,7.27
2017-10-07T06:10:58.901Z,7.10
2017-10-07T06:13:27.143Z,8.83
2017-10-07T06:15:55.389Z,7.77
2017-10-07T06:18:23.632Z,8.60
2017-10-07T06:20:51.878Z,7.47
2017-10-07T06:23:20.126Z,7.40
2017-10-07T06:25:48.370Z,6.83
2017-10-07T06:28:17.382Z,6.23
2017-10-07T06:30:45.628Z,7.40
2017-10-07T06:33:14.640Z,6.40
2017-10-07T06:35:42.895Z,6.00
2017-10-07T06:38:11.901Z,6.20
2017-10-07T06:40:40.920Z,5.40
2017-10-07T06:43:09.155Z,6.17
2017-10-07T06:45:37.392Z,4.90
2017-10-07T06:48:05.630Z,5.73
2017-10-07T06:50:33.897Z,5.93
2017-10-07T06:53:02.900Z,5.90
2017-10-07T06:55:31.137Z,4.83
2017-10-07T06:57:59.375Z,5.80
2017-10-07T07:00:27.630Z,5.50
2017-10-07T07:02:55.862Z,6.23
2017-10-07T07:05:24.117Z,5.73
2017-10-07T07:07:52.363Z,5.13
2017-10-07T07:10:20.608Z,5.30
2017-10-07T07:12:49.609Z,5.80
2017-10-07T07:15:17.861Z,4.93
2017-10-07T07:17:46.107Z,5.47
2017-10-07T07:20:14.349Z,5.10
2017-10-07T07:22:42.587Z,4.27
2017-10-07T07:25:10.833Z,5.10
2017-10-07T07:27:39.074Z,5.27
2017-10-07T07:30:07.310Z,5.03
2017-10-07T07:32:35.547Z,6.00
2017-10-07T07:35:03.788Z,6.30
2017-10-07T07:37:32.039Z,5.80
2017-10-07T07:40:00.278Z,5.97
2017-10-07T07:42:28.517Z,4.73
2017-10-07T07:44:56.758Z,6.23
2017-10-07T07:47:25.005Z,5.60
2017-10-07T07:49:53.261Z,6.03
2017-10-07T07:52:21.506Z,4.87
2017-10-07T07:54:50.509Z,4.90
2017-10-07T07:57:18.785Z,4.17
2017-10-07T07:59:47.037Z,5.47
2017-10-07T08:02:15.279Z,4.10
2017-10-07T08:04:43.522Z,4.87
2017-10-07T08:07:11.763Z,5.10
2017-10-07T08:09:40.807Z,4.10
2017-10-07T08:12:09.043Z,5.50
2017-10-07T08:14:38.050Z,5.20
2017-10-07T08:17:06.303Z,5.07
2017-10-07T08:19:35.307Z,4.83
2017-10-07T08:22:04.313Z,5.20
2017-10-07T08:24:32.564Z,3.03
2017-10-07T08:27:01.566Z,4.70
2017-10-07T08:29:30.579Z,5.03
2017-10-07T08:31:58.829Z,4.97
2017-10-07T08:34:27.833Z,3.20
2017-10-07T08:36:56.078Z,5.53
2017-10-07T08:39:24.317Z,5.50
2017-10-07T08:41:52.562Z,4.23
2017-10-07T08:44:20.805Z,4.20
2017-10-07T08:46:49.431Z,4.50
2017-10-07T08:49:17.674Z,3.83
2017-10-07T08:51:46.690Z,4.60
2017-10-07T08:54:14.933Z,4.10
2017-10-07T08:56:43.229Z,5.40
2017-10-07T08:59:12.237Z,3.83
2017-10-07T09:01:40.487Z,3.80
2017-10-07T09:04:09.507Z,4.20
2017-10-07T09:06:37.749Z,4.60
2017-10-07T09:09:06.773Z,4.63
2017-10-07T09:11:35.030Z,4.37
2017-10-07T09:14:04.045Z,3.67
2017-10-07T09:16:32.292Z,4.17
2017-10-07T09:19:00.544Z,4.07
2017-10-07T09:21:28.786Z,3.70
2017-10-07T09:23:57.049Z,3.43
2017-10-07T09:26:25.590Z,3.17
2017-10-07T09:28:54.596Z,3.30
2017-10-07T09:31:23.615Z,3.40
2017-10-07T09:33:51.854Z,2.80
2017-10-07T09:36:20.098Z,2.77
2017-10-07T09:38:48.356Z,2.23
2017-10-07T09:41:16.610Z,2.13
2017-10-07T09:43:44.861Z,3.10
2017-10-07T09:46:13.118Z,3.00
2017-10-07T09:48:41.361Z,2.43
2017-10-07T09:51:09.618Z,2.57
2017-10-07T09:53:37.861Z,2.70
2017-10-07T09:56:06.889Z,2.73
2017-10-07T09:58:35.142Z,3.17
2017-10-07T10:01:04.155Z,2.77
2017-10-07T10:03:50.745Z,3.60
2017-10-07T10:06:20.486Z,3.53
2017-10-07T10:08:48.742Z,2.73
2017-10-07T10:11:16.991Z,3.40
2017-10-07T10:13:46.051Z,2.30
2017-10-07T10:16:14.383Z,3.03
2017-10-07T10:18:42.718Z,3.10
2017-10-07T10:21:11.029Z,2.30
2017-10-07T10:23:40.127Z,2.83
2017-10-07T10:26:08.423Z,3.53
2017-10-07T10:28:53.199Z,3.00
2017-10-07T10:31:21.506Z,3.50
2017-10-07T10:33:49.763Z,2.83
2017-10-07T10:36:18.062Z,3.00
2017-10-07T10:38:46.354Z,2.80
2017-10-07T10:41:15.490Z,3.27
2017-10-07T10:43:44.162Z,1.77
2017-10-07T10:46:17.935Z,2.20
2017-10-07T10:48:46.966Z,2.60
2017-10-07T10:51:15.295Z,3.27
2017-10-07T10:53:44.567Z,2.97
2017-10-07T10:56:12.820Z,3.23
2017-10-07T10:58:41.062Z,3.17
2017-10-07T11:01:09.305Z,2.83
2017-10-07T11:03:37.550Z,2.73
2017-10-07T11:06:05.794Z,2.80
2017-10-07T11:08:34.802Z,2.70
2017-10-07T11:11:03.055Z,1.80
2017-10-07T11:13:32.075Z,2.37
2017-10-07T11:16:00.323Z,2.60
2017-10-07T11:18:28.570Z,2.57
2017-10-07T11:20:56.818Z,2.20
2017-10-07T11:23:25.071Z,2.97
2017-10-07T11:25:53.321Z,5.33
2017-10-07T11:28:23.069Z,3.67
2017-10-07T11:30:51.309Z,2.60
2017-10-07T11:33:20.330Z,2.67
2017-10-07T11:35:48.575Z,3.00
2017-10-07T11:38:16.827Z,3.20
2017-10-07T11:40:45.073Z,2.90
2017-10-07T11:43:13.330Z,2.47
2017-10-07T11:45:41.569Z,2.30
2017-10-07T11:48:10.599Z,3.00
2017-10-07T11:50:38.841Z,3.10
2017-10-07T11:53:07.085Z,2.67
2017-10-07T11:55:35.426Z,3.13
2017-10-07T11:58:03.679Z,2.77
2017-10-07T12:00:32.685Z,2.87
2017-10-07T12:03:00.938Z,2.20
2017-10-07T12:05:29.178Z,2.60
2017-10-07T12:07:57.427Z,2.63
2017-10-07T12:10:25.675Z,2.60
2017-10-07T12:12:54.693Z,2.63
2017-10-07T12:15:22.937Z,3.60
2017-10-07T12:17:51.950Z,2.90
2017-10-07T12:20:20.197Z,3.33
2017-10-07T12:22:48.444Z,3.20
2017-10-07T12:25:17.459Z,3.20
2017-10-07T12:27:45.705Z,3.07
2017-10-07T12:30:13.951Z,3.33
2017-10-07T12:32:42.201Z,2.73
2017-10-07T12:35:11.217Z,3.40
2017-10-07T12:37:39.491Z,3.47
2017-10-07T12:40:07.735Z,3.10
2017-10-07T12:42:35.981Z,2.80
2017-10-07T12:45:04.245Z,3.30
2017-10-07T12:47:32.483Z,2.80
2017-10-07T12:50:01.502Z,2.90
2017-10-07T12:52:29.742Z,2.57
2017-10-07T12:54:58.763Z,3.00
2017-10-07T12:57:27.003Z,3.37
2017-10-07T12:59:55.246Z,3.40
2017-10-07T13:02:23.502Z,2.70
2017-10-07T13:04:51.758Z,2.53
2017-10-07T13:07:20.011Z,2.60
2017-10-07T13:09:49.017Z,3.70
2017-10-07T13:12:17.274Z,3.20
2017-10-07T13:14:45.519Z,2.63
2017-10-07T13:17:13.765Z,3.10
2017-10-07T13:19:42.030Z,3.50
2017-10-07T13:22:10.271Z,3.40
2017-10-07T13:24:38.508Z,2.37
2017-10-07T13:27:06.768Z,2.30
2017-10-07T13:29:35.015Z,3.37
2017-10-07T13:32:04.029Z,2.60
2017-10-07T13:34:32.279Z,2.70
2017-10-07T13:37:01.302Z,3.37
2017-10-07T13:39:29.550Z,2.63
2017-10-07T13:41:58.570Z,3.70
2017-10-07T13:44:26.818Z,3.73
2017-10-07T13:46:55.832Z,3.17
2017-10-07T13:49:24.075Z,3.60
2017-10-07T13:51:53.089Z,3.67
2017-10-07T13:54:21.329Z,2.70
2017-10-07T13:56:49.584Z,4.07
2017-10-07T13:59:17.835Z,3.27
2017-10-07T14:01:46.093Z,3.17
2017-10-07T14:04:14.339Z,2.80
2017-10-07T14:06:43.353Z,3.30
2017-10-07T14:09:11.602Z,3.30
2017-10-07T14:11:39.845Z,3.90
2017-10-07T14:14:08.109Z,2.73
2017-10-07T14:16:36.366Z,3.30
2017-10-07T14:19:04.617Z,3.60
2017-10-07T14:21:33.631Z,3.30
2017-10-07T14:24:01.883Z,2.80
2017-10-07T14:26:30.894Z,4.03
2017-10-07T14:28:59.141Z,3.10
2017-10-07T14:31:27.392Z,3.33
2017-10-07T14:33:55.642Z,2.73
2017-10-07T14:36:23.890Z,2.63
2017-10-07T14:38:52.915Z,3.30
2017-10-07T14:41:21.152Z,3.13
2017-10-07T14:43:50.170Z,3.73
2017-10-07T14:46:18.422Z,3.50
2017-10-07T14:48:47.438Z,3.80
2017-10-07T14:51:15.694Z,3.63
2017-10-07T14:53:45.437Z,3.97
2017-10-07T14:56:13.691Z,3.17
2017-10-07T14:58:41.939Z,4.57
2017-10-07T15:01:10.953Z,5.80
2017-10-07T15:03:39.201Z,3.73
2017-10-07T15:06:07.453Z,4.20
2017-10-07T15:08:35.731Z,3.80
2017-10-07T15:11:03.973Z,3.77
2017-10-07T15:13:32.231Z,4.37
2017-10-07T15:16:01.247Z,3.00
2017-10-07T15:18:29.498Z,3.20
2017-10-07T15:20:57.746Z,3.73
2017-10-07T15:23:25.997Z,3.57
2017-10-07T15:25:54.241Z,4.27
2017-10-07T15:28:22.501Z,3.80
2017-10-07T15:30:50.744Z,3.77
2017-10-07T15:33:18.997Z,4.70
2017-10-07T15:35:47.243Z,3.17
2017-10-07T15:38:15.513Z,3.50
2017-10-07T15:40:43.756Z,3.50
2017-10-07T15:43:12.770Z,3.50
2017-10-07T15:45:41.017Z,1.80
2017-10-07T15:48:09.268Z,3.67
2017-10-07T15:50:37.522Z,3.40
2017-10-07T15:53:05.771Z,3.40
2017-10-07T15:55:34.021Z,3.20
2017-10-07T15:58:02.273Z,3.57
2017-10-07T16:00:30.514Z,2.83
2017-10-07T16:02:58.761Z,3.07
2017-10-07T16:05:27.778Z,2.50
2017-10-07T16:07:56.029Z,3.00
2017-10-07T16:10:25.038Z,2.40
2017-10-07T16:12:53.336Z,2.23
2017-10-07T16:15:21.571Z,2.63
2017-10-07T16:17:50.580Z,2.40
2017-10-07T16:20:18.836Z,2.33
2017-10-07T16:22:47.843Z,2.17
2017-10-07T16:25:16.095Z,3.03
2017-10-07T16:27:44.336Z,2.63
2017-10-07T16:30:12.587Z,2.83
2017-10-07T16:32:40.830Z,3.67
2017-10-07T16:35:09.848Z,1.97
2017-10-07T16:37:38.097Z,1.60
2017-10-07T16:40:07.115Z,2.17
2017-10-07T16:42:35.354Z,2.00
2017-10-07T16:45:03.617Z,1.87
2017-10-07T16:47:31.853Z,2.00
2017-10-07T16:50:00.110Z,3.33
2017-10-07T16:52:28.362Z,2.13
2017-10-07T16:54:57.365Z,2.20
2017-10-07T16:57:26.389Z,2.07
2017-10-07T16:59:54.638Z,2.00
2017-10-07T17:02:23.668Z,1.30
2017-10-07T17:04:51.912Z,1.73
2017-10-07T17:07:20.926Z,2.60
2017-10-07T17:09:49.177Z,2.87
2017-10-07T17:12:17.432Z,2.63
2017-10-07T17:14:45.678Z,1.43
2017-10-07T17:17:14.703Z,2.63
2017-10-07T17:19:42.942Z,2.50
2017-10-07T17:22:11.954Z,2.37
2017-10-07T17:24:40.206Z,1.80
2017-10-07T17:27:09.214Z,1.93
2017-10-07T17:29:38.233Z,2.17
2017-10-07T17:32:06.478Z,3.10
2017-10-07T17:34:35.496Z,2.20
2017-10-07T17:37:03.741Z,3.83
2017-10-07T17:39:32.766Z,2.10
2017-10-07T17:42:01.014Z,1.80
2017-10-07T17:44:30.028Z,3.03
2017-10-07T17:46:58.278Z,1.90
2017-10-07T17:49:27.306Z,2.50
2017-10-07T17:51:55.546Z,2.40
2017-10-07T17:54:24.574Z,2.50
2017-10-07T17:56:52.827Z,1.87
2017-10-07T17:59:21.838Z,2.47
2017-10-07T18:01:50.089Z,1.83
2017-10-07T18:04:19.112Z,2.70
2017-10-07T18:06:47.357Z,1.63
2017-10-07T18:09:16.369Z,3.47
2017-10-07T18:11:44.634Z,2.10
2017-10-07T18:14:13.642Z,2.23
2017-10-07T18:16:41.901Z,2.57
2017-10-07T18:19:10.905Z,3.93
2017-10-07T18:21:39.165Z,2.30
2017-10-07T18:24:08.177Z,2.50
2017-10-07T18:26:36.655Z,2.60
2017-10-07T18:29:05.102Z,2.20
2017-10-07T18:31:34.276Z,2.67
2017-10-07T18:34:02.695Z,1.80
2017-10-07T18:36:32.139Z,2.23
2017-10-07T18:39:01.494Z,2.50
2017-10-07T18:41:30.710Z,1.70
2017-10-07T18:44:04.296Z,2.30
2017-10-07T18:46:33.446Z,1.80
2017-10-07T19:01:35.657Z,2.00
2017-10-07T19:04:07.640Z,2.30
2017-10-07T19:06:38.853Z,2.57
2017-10-07T19:09:21.660Z,2.37
2017-10-07T19:11:50.622Z,2.60
2017-10-07T19:14:27.218Z,2.73
2017-10-07T19:22:51.422Z,2.00
2017-10-07T19:25:20.621Z,2.43
2017-10-07T19:27:51.692Z,1.93
2017-10-07T19:30:19.945Z,1.93
2017-10-07T19:32:48.963Z,2.63
2017-10-07T19:35:17.219Z,2.47
2017-10-07T19:37:46.246Z,2.03
2017-10-07T19:40:14.503Z,2.00
2017-10-07T19:42:43.511Z,1.73
2017-10-07T19:45:11.766Z,2.03
2017-10-07T19:47:40.830Z,2.00
2017-10-07T19:50:09.074Z,2.17
2017-10-07T19:52:37.318Z,1.60
2017-10-07T19:55:05.570Z,2.00
2017-10-07T19:57:33.842Z,1.90
2017-10-07T20:00:02.894Z,1.87
2017-10-07T20:02:31.171Z,2.37
2017-10-07T20:05:01.656Z,1.40
2017-10-07T20:07:30.670Z,2.03
2017-10-07T20:09:58.913Z,1.50
2017-10-07T20:12:27.170Z,1.60
2017-10-07T20:14:55.412Z,2.10
2017-10-07T20:17:23.667Z,1.93
2017-10-07T20:19:51.905Z,1.67
2017-10-07T20:22:20.163Z,2.00
2017-10-07T20:24:48.401Z,1.63
2017-10-07T20:27:16.677Z,1.63
2017-10-07T20:29:44.962Z,2.10
2017-10-07T20:32:13.216Z,2.60
2017-10-07T20:34:41.460Z,1.70
2017-10-07T20:37:09.710Z,2.37
2017-10-07T20:39:37.977Z,1.83
2017-10-07T20:42:06.231Z,2.87
2017-10-07T20:44:34.465Z,2.20
2017-10-07T20:47:02.705Z,1.70
2017-10-07T20:49:30.945Z,1.70
2017-10-07T20:51:59.181Z,1.77
2017-10-07T20:54:27.426Z,1.50
2017-10-07T20:56:55.903Z,1.43
2017-10-07T20:59:24.170Z,1.57
2017-10-07T21:01:52.424Z,2.73
2017-10-07T21:04:21.429Z,1.40
2017-10-07T21:06:49.674Z,1.70
2017-10-07T21:09:18.684Z,1.83
2017-10-07T21:11:46.922Z,2.40
2017-10-07T21:14:15.160Z,1.50
2017-10-07T21:16:43.394Z,1.50
2017-10-07T21:19:12.404Z,2.17
2017-10-07T21:21:40.657Z,1.73
2017-10-07T21:24:08.901Z,1.57
2017-10-07T21:26:37.134Z,1.13
2017-10-07T21:29:05.377Z,2.37
2017-10-07T21:31:34.381Z,1.87
2017-10-07T21:34:03.393Z,2.40
2017-10-07T21:36:31.626Z,1.57
2017-10-07T21:38:59.871Z,1.83
2017-10-07T21:41:28.117Z,1.53
2017-10-07T21:43:56.359Z,1.80
2017-10-07T21:46:42.450Z,1.70
2017-10-07T21:49:11.995Z,1.87
2017-10-07T21:51:41.350Z,1.83
2017-10-07T21:54:09.754Z,2.37
2017-10-07T21:56:38.087Z,2.07
2017-10-07T21:59:10.147Z,1.90
2017-10-07T22:01:38.406Z,1.60
2017-10-07T22:04:06.642Z,1.80
2017-10-07T22:06:35.653Z,1.80
2017-10-07T22:09:03.901Z,2.00
2017-10-07T22:11:32.141Z,1.97
2017-10-07T22:14:00.388Z,1.60
2017-10-07T22:16:28.625Z,1.70
2017-10-07T22:18:57.718Z,1.63
2017-10-07T22:21:25.982Z,2.10
2017-10-07T22:23:54.223Z,2.00
2017-10-07T22:26:22.453Z,1.97
2017-10-07T22:28:51.468Z,3.13
2017-10-07T22:31:20.469Z,2.10
2017-10-07T22:33:48.701Z,2.20
2017-10-07T22:36:16.936Z,2.27
2017-10-07T22:38:45.213Z,1.60
2017-10-07T22:41:13.465Z,1.60
2017-10-07T22:43:42.605Z,1.73
2017-10-07T22:46:10.878Z,2.37
2017-10-07T22:48:39.172Z,2.43
2017-10-07T22:51:07.449Z,2.13
2017-10-07T22:53:35.679Z,2.03
2017-10-07T22:56:03.938Z,2.10
2017-10-07T22:58:32.930Z,2.10
2017-10-07T23:01:01.177Z,2.40
2017-10-07T23:03:29.406Z,2.77
2017-10-07T23:05:57.645Z,2.00
2017-10-07T23:08:26.645Z,2.67
2017-10-07T23:10:54.982Z,2.70
2017-10-07T23:13:23.217Z,2.60
2017-10-07T23:15:51.603Z,2.27
2017-10-07T23:18:19.880Z,1.43
2017-10-07T23:20:48.125Z,2.70
2017-10-07T23:23:16.373Z,3.63
2017-10-07T23:25:44.766Z,3.20
2017-10-07T23:28:13.777Z,3.10
2017-10-07T23:30:42.018Z,2.83
2017-10-07T23:33:10.270Z,2.77
2017-10-07T23:35:38.510Z,2.97
2017-10-07T23:38:06.783Z,3.10
2017-10-07T23:40:35.016Z,3.30
2017-10-07T23:43:03.259Z,4.07
2017-10-07T23:45:31.498Z,3.67
2017-10-07T23:47:59.755Z,2.80
2017-10-07T23:50:27.987Z,3.90
2017-10-07T23:52:56.234Z,3.50
2017-10-07T23:55:24.472Z,3.33
2017-10-07T23:57:52.721Z,2.80
